createdAt,value
2023-03-20T00:01:17.479Z,9.13
2023-03-20T00:03:44.850Z,9.68
2023-03-20T00:06:16.433Z,10.63
2023-03-20T00:08:45.886Z,11.10
2023-03-20T00:11:48.338Z,10.10
2023-03-20T00:14:18.009Z,9.98
2023-03-20T00:16:48.269Z,9.85
2023-03-20T00:19:20.836Z,9.07
2023-03-20T00:21:48.524Z,8.50
2023-03-20T00:24:16.508Z,7.78
2023-03-20T00:26:45.307Z,13.35
2023-03-20T00:29:26.162Z,9.98
2023-03-20T00:31:54.630Z,9.40
2023-03-20T00:34:23.860Z,11.02
2023-03-20T00:36:52.070Z,9.88
2023-03-20T00:39:19.552Z,8.32
2023-03-20T00:41:58.463Z,9.15
2023-03-20T00:44:32.116Z,11.50
2023-03-20T00:47:04.140Z,7.85
2023-03-20T00:49:35.946Z,7.70
2023-03-20T00:52:03.861Z,8.40
2023-03-20T00:54:31.683Z,10.02
2023-03-20T00:57:07.213Z,8.98
2023-03-20T00:59:37.931Z,10.93
2023-03-20T01:02:05.429Z,10.18
2023-03-20T01:04:38.019Z,7.95
2023-03-20T01:07:06.173Z,9.77
2023-03-20T01:09:33.169Z,7.45
2023-03-20T01:12:03.559Z,7.03
2023-03-20T01:14:30.468Z,8.25
2023-03-20T01:16:57.452Z,7.78
2023-03-20T01:19:24.288Z,7.95
2023-03-20T01:21:51.453Z,9.95
2023-03-20T01:24:19.083Z,8.98
2023-03-20T01:26:46.812Z,8.38
2023-03-20T01:29:20.098Z,7.28
2023-03-20T01:31:47.694Z,9.13
2023-03-20T01:34:16.503Z,12.07
2023-03-20T01:36:58.804Z,8.05
2023-03-20T01:39:33.767Z,7.70
2023-03-20T01:42:02.294Z,8.25
2023-03-20T01:44:33.946Z,9.27
2023-03-20T01:47:02.759Z,9.02
2023-03-20T01:49:29.625Z,8.15
2023-03-20T01:52:00.857Z,8.15
2023-03-20T01:54:35.840Z,7.40
2023-03-20T01:57:20.404Z,8.90
2023-03-20T01:59:51.636Z,8.27
2023-03-20T02:02:26.279Z,7.82
2023-03-20T02:04:59.103Z,8.07
2023-03-20T02:07:26.114Z,8.30
2023-03-20T02:10:19.563Z,8.60
2023-03-20T02:13:03.526Z,8.88
2023-03-20T02:15:58.963Z,8.00
2023-03-20T02:18:47.420Z,7.40
2023-03-20T02:21:52.242Z,11.25
2023-03-20T02:24:56.943Z,9.27
2023-03-20T02:28:04.908Z,8.40
2023-03-20T02:31:03.669Z,7.88
2023-03-20T02:33:44.635Z,8.07
2023-03-20T02:36:31.848Z,8.52
2023-03-20T02:39:13.681Z,8.05
2023-03-20T02:41:59.857Z,8.80
2023-03-20T02:44:53.590Z,12.30
2023-03-20T02:47:30.049Z,7.50
2023-03-20T02:50:11.311Z,9.63
2023-03-20T02:52:52.547Z,7.68
2023-03-20T02:55:34.929Z,9.10
2023-03-20T02:58:26.644Z,8.07
2023-03-20T03:01:23.041Z,9.15
2023-03-20T03:03:58.578Z,13.15
2023-03-20T03:06:32.503Z,8.65
2023-03-20T03:09:08.334Z,8.02
2023-03-20T03:11:40.829Z,7.72
2023-03-20T03:14:11.926Z,7.88
2023-03-20T03:16:40.589Z,10.30
2023-03-20T03:19:18.655Z,12.45
2023-03-20T03:21:48.058Z,9.13
2023-03-20T03:24:40.354Z,13.57
2023-03-20T03:27:37.218Z,13.57
2023-03-20T03:30:16.573Z,14.82
2023-03-20T03:32:58.667Z,15.63
2023-03-20T03:35:27.015Z,16.27
2023-03-20T03:38:16.021Z,11.98
2023-03-20T03:41:07.825Z,14.25
2023-03-20T03:43:43.222Z,15.35
2023-03-20T03:46:19.558Z,13.82
2023-03-20T03:48:52.510Z,12.57
2023-03-20T03:51:28.271Z,10.25
2023-03-20T03:54:16.635Z,12.45
2023-03-20T03:56:50.195Z,10.73
2023-03-20T03:59:49.710Z,15.38
2023-03-20T04:02:19.640Z,12.88
2023-03-20T04:04:50.701Z,15.43
2023-03-20T04:07:17.593Z,16.25
2023-03-20T04:09:44.638Z,18.10
2023-03-20T04:12:35.832Z,19.25
2023-03-20T04:15:04.152Z,14.35
2023-03-20T04:17:33.470Z,22.73
2023-03-20T04:20:00.612Z,22.65
2023-03-20T04:22:27.635Z,20.42
2023-03-20T04:24:58.381Z,21.33
2023-03-20T04:27:27.760Z,19.95
2023-03-20T04:29:55.391Z,19.77
2023-03-20T04:33:01.278Z,23.08
2023-03-20T04:35:37.484Z,22.10
2023-03-20T04:38:11.400Z,19.58
2023-03-20T04:40:39.343Z,22.42
2023-03-20T04:43:06.159Z,21.02
2023-03-20T04:45:33.150Z,23.35
2023-03-20T04:48:00.929Z,30.98
2023-03-20T04:50:28.173Z,26.40
2023-03-20T04:52:55.918Z,30.13
2023-03-20T04:55:23.142Z,32.88
2023-03-20T04:57:50.880Z,29.10
2023-03-20T05:00:18.556Z,36.83
2023-03-20T05:02:45.671Z,35.38
2023-03-20T05:05:12.894Z,37.70
2023-03-20T05:07:39.855Z,37.28
2023-03-20T05:10:14.390Z,44.22
2023-03-20T05:12:56.207Z,38.88
2023-03-20T05:15:23.024Z,38.70
2023-03-20T05:18:15.955Z,46.47
2023-03-20T05:20:51.855Z,49.95
2023-03-20T05:23:40.645Z,49.38
2023-03-20T05:26:20.790Z,41.30
2023-03-20T05:29:07.478Z,45.70
2023-03-20T05:31:57.382Z,36.60
2023-03-20T05:34:42.827Z,51.78
2023-03-20T05:37:20.209Z,42.40
2023-03-20T05:40:03.620Z,44.38
2023-03-20T05:42:30.683Z,50.50
2023-03-20T05:45:26.728Z,45.60
2023-03-20T05:47:53.547Z,40.45
2023-03-20T05:50:43.502Z,37.75
2023-03-20T05:53:18.932Z,52.17
2023-03-20T05:55:54.787Z,42.15
2023-03-20T05:58:47.659Z,39.80
2023-03-20T06:01:26.638Z,38.15
2023-03-20T06:04:08.512Z,45.20
2023-03-20T06:06:55.592Z,44.78
2023-03-20T06:09:23.398Z,43.90
2023-03-20T06:11:50.592Z,46.42
2023-03-20T06:14:18.502Z,47.25
2023-03-20T06:16:52.134Z,52.33
2023-03-20T06:19:19.052Z,52.67
2023-03-20T06:21:46.233Z,40.50
2023-03-20T06:24:16.494Z,51.42
2023-03-20T06:26:43.505Z,37.00
2023-03-20T06:29:13.188Z,38.33
2023-03-20T06:31:40.356Z,48.53
2023-03-20T06:34:11.628Z,53.38
2023-03-20T06:36:45.440Z,51.85
2023-03-20T06:39:18.614Z,41.45
2023-03-20T06:41:46.079Z,50.97
2023-03-20T06:44:12.984Z,56.58
2023-03-20T06:46:58.414Z,43.15
2023-03-20T06:49:26.167Z,58.25
2023-03-20T06:51:53.094Z,48.13
2023-03-20T06:54:26.873Z,38.03
2023-03-20T06:56:54.798Z,50.60
2023-03-20T06:59:22.128Z,50.92
2023-03-20T07:01:50.466Z,47.92
2023-03-20T07:04:17.532Z,50.92
2023-03-20T07:06:49.567Z,52.03
2023-03-20T07:09:17.874Z,43.22
2023-03-20T07:11:45.018Z,52.75
2023-03-20T07:14:12.377Z,37.17
2023-03-20T07:16:48.423Z,45.20
2023-03-20T07:19:15.469Z,39.20
2023-03-20T07:21:45.204Z,50.70
2023-03-20T07:24:14.256Z,51.58
2023-03-20T07:26:41.276Z,49.72
2023-03-20T07:29:08.416Z,47.53
2023-03-20T07:31:36.056Z,65.18
2023-03-20T07:34:16.809Z,53.83
2023-03-20T07:36:44.862Z,53.80
2023-03-20T07:39:17.007Z,64.75
2023-03-20T07:41:51.517Z,49.75
2023-03-20T07:44:36.569Z,47.13
2023-03-20T07:47:08.754Z,57.00
2023-03-20T07:49:36.652Z,40.53
2023-03-20T07:52:03.513Z,51.10
2023-03-20T07:54:31.823Z,43.42
2023-03-20T07:56:58.608Z,55.95
2023-03-20T07:59:25.395Z,46.50
2023-03-20T08:01:52.320Z,55.55
2023-03-20T08:04:22.282Z,65.88
2023-03-20T08:06:50.287Z,59.08
2023-03-20T08:09:18.469Z,48.35
2023-03-20T08:11:46.102Z,43.92
2023-03-20T08:14:13.077Z,39.47
2023-03-20T08:16:40.066Z,53.20
2023-03-20T08:19:07.061Z,44.80
2023-03-20T08:21:34.185Z,56.47
2023-03-20T08:24:01.432Z,54.05
2023-03-20T08:26:28.268Z,48.90
2023-03-20T08:28:55.269Z,48.72
2023-03-20T08:31:22.081Z,54.78
2023-03-20T08:33:49.044Z,46.92
2023-03-20T08:36:17.168Z,54.67
2023-03-20T08:38:44.067Z,57.13
2023-03-20T08:41:11.029Z,50.15
2023-03-20T08:43:38.019Z,41.42
2023-03-20T08:46:06.532Z,47.95
2023-03-20T08:48:33.842Z,51.13
2023-03-20T08:51:02.013Z,54.95
2023-03-20T08:53:28.839Z,44.22
2023-03-20T08:55:56.531Z,59.35
2023-03-20T08:58:23.477Z,55.88
2023-03-20T09:00:50.659Z,48.55
2023-03-20T09:03:20.972Z,49.60
2023-03-20T09:05:50.954Z,46.65
2023-03-20T09:08:18.212Z,54.58
2023-03-20T09:10:46.731Z,48.22
2023-03-20T09:13:26.214Z,50.88
2023-03-20T09:15:55.130Z,50.97
2023-03-20T09:18:22.502Z,41.00
2023-03-20T09:20:49.713Z,65.97
2023-03-20T09:23:17.219Z,59.00
2023-03-20T09:25:44.290Z,53.25
2023-03-20T09:28:11.257Z,52.78
2023-03-20T09:30:38.860Z,51.55
2023-03-20T09:33:05.882Z,56.85
2023-03-20T09:35:32.814Z,53.88
2023-03-20T09:37:59.931Z,55.00
2023-03-20T09:40:32.311Z,46.60
2023-03-20T09:43:14.555Z,50.30
2023-03-20T09:46:07.373Z,64.65
2023-03-20T09:48:55.876Z,52.25
2023-03-20T09:51:44.165Z,54.92
2023-03-20T09:54:21.816Z,42.80
2023-03-20T09:56:51.280Z,49.25
2023-03-20T09:59:19.649Z,51.22
2023-03-20T10:02:06.243Z,44.83
2023-03-20T10:04:34.738Z,52.90
2023-03-20T10:07:05.002Z,52.13
2023-03-20T10:09:32.330Z,53.17
2023-03-20T10:12:18.217Z,51.13
2023-03-20T10:15:02.037Z,45.47
2023-03-20T10:17:58.236Z,41.75
2023-03-20T10:20:36.290Z,48.80
2023-03-20T10:23:13.452Z,45.55
2023-03-20T10:25:46.324Z,44.03
2023-03-20T10:28:26.993Z,47.83
2023-03-20T10:31:09.593Z,49.55
2023-03-20T10:33:51.211Z,49.80
2023-03-20T10:36:46.387Z,71.72
2023-03-20T10:39:31.948Z,43.60
2023-03-20T10:42:02.819Z,32.22
2023-03-20T10:44:41.550Z,42.92
2023-03-20T10:47:13.064Z,46.40
2023-03-20T10:49:49.468Z,40.45
2023-03-20T10:52:22.861Z,37.13
2023-03-20T10:55:14.126Z,35.70
2023-03-20T10:57:47.417Z,35.13
2023-03-20T11:00:22.924Z,32.45
2023-03-20T11:02:49.961Z,31.98
2023-03-20T11:05:25.370Z,42.50
2023-03-20T11:08:26.717Z,36.67
2023-03-20T11:11:01.697Z,33.63
2023-03-20T11:13:33.409Z,39.80
2023-03-20T11:16:19.851Z,36.75
2023-03-20T11:18:49.359Z,44.00
2023-03-20T11:21:23.598Z,48.65
2023-03-20T11:23:51.524Z,38.47
2023-03-20T11:26:39.927Z,32.15
2023-03-20T11:29:15.284Z,41.72
2023-03-20T11:31:42.787Z,49.03
2023-03-20T11:34:15.525Z,56.00
2023-03-20T11:37:13.008Z,38.50
2023-03-20T11:39:56.112Z,44.88
2023-03-20T11:42:26.337Z,39.67
2023-03-20T11:45:07.268Z,43.67
2023-03-20T11:47:36.039Z,44.55
2023-03-20T11:50:06.401Z,41.47
2023-03-20T11:52:39.188Z,55.75
2023-03-20T11:55:24.721Z,50.95
2023-03-20T11:57:55.983Z,59.88
2023-03-20T12:00:35.018Z,59.42
2023-03-20T12:03:02.352Z,60.60
2023-03-20T12:05:39.415Z,63.17
2023-03-20T12:08:22.449Z,58.30
2023-03-20T12:11:17.689Z,65.40
2023-03-20T12:13:47.679Z,58.70
2023-03-20T12:16:21.161Z,55.08
2023-03-20T12:19:18.643Z,75.53
2023-03-20T12:21:52.321Z,66.78
2023-03-20T12:24:41.626Z,58.25
2023-03-20T12:27:40.771Z,56.15
2023-03-20T12:30:16.885Z,61.67
2023-03-20T12:33:04.840Z,54.05
2023-03-20T12:35:37.916Z,56.33
2023-03-20T12:38:23.210Z,61.85
2023-03-20T12:40:56.867Z,62.50
2023-03-20T12:43:33.608Z,50.85
2023-03-20T12:46:29.143Z,54.22
2023-03-20T12:49:16.238Z,54.25
2023-03-20T12:52:18.602Z,48.25
2023-03-20T12:54:45.610Z,51.97
2023-03-20T12:57:20.573Z,49.08
2023-03-20T13:00:10.332Z,42.75
2023-03-20T13:02:49.605Z,52.55
2023-03-20T13:05:45.959Z,46.38
2023-03-20T13:08:38.713Z,51.80
2023-03-20T13:11:31.086Z,36.63
2023-03-20T13:14:24.398Z,47.00
2023-03-20T13:17:22.899Z,52.92
2023-03-20T13:20:30.035Z,39.63
2023-03-20T13:23:10.841Z,47.33
2023-03-20T13:25:46.628Z,49.45
2023-03-20T13:28:25.547Z,39.67
2023-03-20T13:31:34.079Z,45.67
2023-03-20T13:34:04.790Z,47.95
2023-03-20T13:36:51.870Z,46.70
2023-03-20T13:39:33.727Z,39.92
2023-03-20T13:42:04.204Z,47.13
2023-03-20T13:44:33.188Z,45.03
2023-03-20T13:47:03.799Z,44.15
2023-03-20T13:49:40.883Z,37.97
2023-03-20T13:52:21.161Z,38.70
2023-03-20T13:55:11.611Z,43.97
2023-03-20T13:57:57.210Z,39.53
2023-03-20T14:00:30.839Z,36.35
2023-03-20T14:03:24.586Z,40.00
2023-03-20T14:05:51.617Z,37.80
2023-03-20T14:08:32.402Z,34.33
2023-03-20T14:11:13.338Z,32.28
2023-03-20T14:13:45.099Z,32.85
2023-03-20T14:16:15.925Z,36.58
2023-03-20T14:18:45.632Z,29.20
2023-03-20T14:21:17.926Z,40.38
2023-03-20T14:23:50.592Z,36.03
2023-03-20T14:26:26.104Z,38.80
2023-03-20T14:28:54.525Z,29.38
2023-03-20T14:31:24.569Z,26.45
2023-03-20T14:34:00.008Z,25.77
2023-03-20T14:37:00.874Z,26.33
2023-03-20T14:40:00.371Z,28.85
2023-03-20T14:42:36.434Z,21.33
2023-03-20T14:45:24.812Z,17.90
2023-03-20T14:48:27.419Z,16.20
2023-03-20T14:51:14.793Z,12.73
2023-03-20T14:53:41.889Z,13.70
2023-03-20T14:56:15.790Z,17.17
2023-03-20T14:58:56.152Z,10.15
2023-03-20T15:01:27.552Z,12.82
2023-03-20T15:04:02.572Z,13.60
2023-03-20T15:06:29.948Z,12.93
2023-03-20T15:09:08.278Z,17.30
2023-03-20T15:11:35.676Z,11.90
2023-03-20T15:14:06.332Z,11.38
2023-03-20T15:16:35.464Z,11.48
2023-03-20T15:19:15.318Z,13.32
2023-03-20T15:21:45.270Z,11.27
2023-03-20T15:24:23.727Z,11.65
2023-03-20T15:26:57.992Z,11.50
2023-03-20T15:29:25.215Z,12.05
2023-03-20T15:32:12.943Z,12.77
2023-03-20T15:34:42.363Z,14.63
2023-03-20T15:37:15.839Z,15.40
2023-03-20T15:39:45.289Z,13.88
2023-03-20T15:42:18.826Z,13.57
2023-03-20T15:44:48.468Z,15.05
2023-03-20T15:47:20.724Z,13.90
2023-03-20T15:49:56.712Z,11.95
2023-03-20T15:52:27.031Z,15.07
2023-03-20T15:54:56.529Z,11.98
2023-03-20T15:57:44.926Z,12.23
2023-03-20T16:00:20.201Z,12.60
2023-03-20T16:02:48.970Z,13.82
2023-03-20T16:05:17.272Z,16.13
2023-03-20T16:07:44.231Z,15.20
2023-03-20T16:10:31.321Z,16.23
2023-03-20T16:12:58.557Z,12.00
2023-03-20T16:15:29.728Z,14.15
2023-03-20T16:18:00.247Z,11.63
2023-03-20T16:20:32.618Z,10.20
2023-03-20T16:23:07.046Z,11.88
2023-03-20T16:25:37.609Z,12.65
2023-03-20T16:28:08.859Z,13.38
2023-03-20T16:30:36.446Z,11.10
2023-03-20T16:33:14.009Z,13.27
2023-03-20T16:35:47.541Z,13.15
2023-03-20T16:38:19.639Z,14.73
2023-03-20T16:40:46.553Z,18.17
2023-03-20T16:43:17.494Z,13.35
2023-03-20T16:48:29.834Z,9.60
2023-03-20T16:51:18.433Z,13.88
2023-03-20T16:53:50.691Z,10.45
2023-03-20T16:56:26.221Z,13.07
2023-03-20T16:58:56.640Z,18.48
2023-03-20T17:01:27.093Z,17.63
2023-03-20T17:04:11.370Z,20.73
2023-03-20T17:06:43.375Z,19.13
2023-03-20T17:09:13.287Z,18.00
2023-03-20T17:11:47.422Z,18.30
2023-03-20T17:14:14.276Z,7.93
2023-03-20T17:16:41.785Z,9.68
2023-03-20T17:19:17.847Z,11.18
2023-03-20T17:21:46.315Z,8.05
2023-03-20T17:24:14.516Z,16.55
2023-03-20T17:26:44.120Z,13.55
2023-03-20T17:29:12.038Z,17.45
2023-03-20T17:31:39.456Z,17.42
2023-03-20T17:34:06.364Z,19.15
2023-03-20T17:36:34.771Z,19.75
2023-03-20T17:39:02.650Z,17.25
2023-03-20T17:41:29.510Z,20.52
2023-03-20T17:43:56.655Z,21.92
2023-03-20T17:46:27.274Z,19.42
2023-03-20T17:49:14.710Z,17.48
2023-03-20T17:51:42.930Z,15.02
2023-03-20T17:54:10.101Z,21.83
2023-03-20T17:56:38.885Z,18.80
2023-03-20T17:59:08.346Z,19.25
2023-03-20T18:01:35.389Z,13.45
2023-03-20T18:04:02.492Z,16.90
2023-03-20T18:06:32.649Z,20.77
2023-03-20T18:09:01.820Z,15.77
2023-03-20T18:11:29.068Z,20.45
2023-03-20T18:13:56.301Z,24.10
2023-03-20T18:16:25.593Z,19.70
2023-03-20T18:18:53.786Z,17.27
2023-03-20T18:21:21.015Z,17.98
2023-03-20T18:23:47.896Z,24.02
2023-03-20T18:26:26.324Z,18.55
2023-03-20T18:28:55.174Z,16.98
2023-03-20T18:31:22.629Z,10.93
2023-03-20T18:33:51.920Z,11.43
2023-03-20T18:36:24.481Z,9.73
2023-03-20T18:38:52.103Z,10.75
2023-03-20T18:41:19.345Z,10.02
2023-03-20T18:43:46.694Z,8.77
2023-03-20T18:46:16.262Z,10.32
2023-03-20T18:48:43.540Z,9.73
2023-03-20T18:51:10.946Z,9.20
2023-03-20T18:53:38.361Z,8.48
2023-03-20T18:56:12.757Z,14.60
2023-03-20T18:58:39.702Z,10.32
2023-03-20T19:01:06.736Z,9.40
2023-03-20T19:03:39.179Z,8.23
2023-03-20T19:06:10.505Z,10.27
2023-03-20T19:08:38.751Z,9.05
2023-03-20T19:11:08.405Z,9.48
2023-03-20T19:13:36.657Z,12.45
2023-03-20T19:16:03.652Z,9.52
2023-03-20T19:18:30.626Z,7.85
2023-03-20T19:20:57.987Z,11.18
2023-03-20T19:23:26.058Z,14.25
2023-03-20T19:25:55.126Z,8.68
2023-03-20T19:28:37.782Z,11.10
2023-03-20T19:31:06.508Z,6.82
2023-03-20T19:33:33.891Z,10.20
2023-03-20T19:36:03.744Z,12.63
2023-03-20T19:38:32.065Z,10.50
2023-03-20T19:41:00.180Z,12.73
2023-03-20T19:43:29.035Z,9.95
2023-03-20T19:45:58.832Z,8.20
2023-03-20T19:48:43.231Z,12.65
2023-03-20T19:51:27.012Z,10.65
2023-03-20T19:53:54.683Z,10.15
2023-03-20T19:56:23.268Z,9.20
2023-03-20T19:58:50.531Z,10.52
2023-03-20T20:01:24.120Z,10.98
2023-03-20T20:03:53.635Z,9.70
2023-03-20T20:06:22.526Z,8.98
2023-03-20T20:08:51.490Z,8.20
2023-03-20T20:11:20.483Z,7.22
2023-03-20T20:14:04.726Z,10.43
2023-03-20T20:16:34.011Z,9.63
2023-03-20T20:19:00.791Z,10.25
2023-03-20T20:24:16.104Z,6.15
2023-03-20T20:26:53.447Z,9.98
2023-03-20T20:29:21.332Z,10.10
2023-03-20T20:31:48.436Z,9.90
2023-03-20T20:35:14.861Z,10.98
2023-03-20T20:39:49.193Z,19.05
2023-03-20T20:42:17.188Z,12.82
2023-03-20T20:44:44.391Z,11.45
2023-03-20T20:47:11.478Z,10.80
2023-03-20T20:49:38.505Z,12.52
2023-03-20T20:52:06.030Z,10.38
2023-03-20T20:54:34.024Z,17.30
2023-03-20T20:57:01.786Z,9.05
2023-03-20T20:59:29.155Z,8.50
2023-03-20T21:01:56.439Z,10.80
2023-03-20T21:04:24.099Z,10.05
2023-03-20T21:07:08.706Z,9.80
2023-03-20T21:09:36.726Z,7.03
2023-03-20T21:12:04.379Z,7.90
2023-03-20T21:14:31.337Z,8.85
2023-03-20T21:17:01.192Z,8.85
2023-03-20T21:19:34.809Z,9.57
2023-03-20T21:22:01.758Z,10.85
2023-03-20T21:24:33.156Z,7.45
2023-03-20T21:27:03.142Z,8.52
2023-03-20T21:29:30.062Z,10.40
2023-03-20T21:31:57.067Z,10.43
2023-03-20T21:34:23.974Z,10.40
2023-03-20T21:36:51.601Z,10.40
2023-03-20T21:39:19.341Z,9.38
2023-03-20T21:41:46.834Z,8.20
2023-03-20T21:44:17.634Z,8.10
2023-03-20T21:47:22.757Z,12.23
2023-03-20T21:56:00.234Z,11.23
2023-03-20T22:04:22.054Z,7.03
2023-03-20T22:20:59.045Z,7.95
2023-03-20T22:26:55.161Z,11.15
2023-03-20T22:29:32.703Z,6.35
2023-03-20T22:32:16.225Z,6.60
2023-03-20T22:37:46.663Z,7.68
2023-03-20T22:40:59.226Z,8.52
2023-03-20T22:45:37.928Z,10.32
2023-03-20T22:48:11.560Z,7.95
2023-03-20T22:50:39.979Z,7.88
2023-03-20T22:53:07.062Z,8.57
2023-03-20T22:55:33.872Z,6.95
2023-03-20T22:58:07.448Z,10.85
2023-03-20T23:00:36.441Z,8.50
2023-03-20T23:03:37.807Z,7.57
2023-03-20T23:05:52.647Z,7.35
2023-03-20T23:08:19.711Z,6.95
2023-03-20T23:10:48.566Z,12.45
2023-03-20T23:13:16.807Z,8.50
2023-03-20T23:15:46.713Z,11.73
2023-03-20T23:18:14.506Z,9.35
2023-03-20T23:20:41.372Z,7.00
2023-03-20T23:23:08.466Z,10.63
2023-03-20T23:25:39.797Z,8.80
2023-03-20T23:28:08.906Z,7.32
2023-03-20T23:31:03.340Z,8.15
2023-03-20T23:33:23.752Z,9.35
2023-03-20T23:36:01.265Z,8.38
2023-03-20T23:38:36.568Z,11.50
2023-03-20T23:41:03.447Z,12.00
2023-03-20T23:43:30.374Z,9.40
2023-03-20T23:45:57.501Z,10.30
2023-03-20T23:48:24.385Z,9.05
2023-03-20T23:50:53.274Z,10.07
2023-03-20T23:53:21.580Z,9.88
2023-03-20T23:55:51.584Z,8.75
2023-03-20T23:58:19.301Z,7.80
